createdAt,value
2024-03-08T00:01:20.227Z,42.88
2024-03-08T00:06:23.186Z,42.58
2024-03-08T00:11:27.116Z,44.38
2024-03-08T00:16:31.468Z,43.85
2024-03-08T00:21:34.447Z,43.58
2024-03-08T00:26:37.604Z,42.80
2024-03-08T00:31:41.889Z,43.45
2024-03-08T00:36:45.138Z,41.13
2024-03-08T00:41:48.520Z,41.40
2024-03-08T00:46:55.208Z,40.58
2024-03-08T00:51:58.839Z,40.03
2024-03-08T00:57:04.072Z,42.72
2024-03-08T01:02:10.161Z,42.20
2024-03-08T01:07:13.227Z,40.75
2024-03-08T01:12:16.372Z,42.25
2024-03-08T01:17:20.787Z,42.97
2024-03-08T01:22:23.745Z,42.13
2024-03-08T01:27:27.269Z,40.00
2024-03-08T01:32:31.825Z,42.65
2024-03-08T01:37:34.783Z,42.55
2024-03-08T01:42:38.793Z,42.15
2024-03-08T01:47:43.287Z,40.80
2024-03-08T01:52:46.768Z,41.30
2024-03-08T01:57:50.269Z,41.33
2024-03-08T02:02:56.641Z,39.38
2024-03-08T02:07:59.789Z,39.55
2024-03-08T02:13:04.688Z,40.80
2024-03-08T02:18:09.162Z,38.65
2024-03-08T02:23:14.850Z,39.70
2024-03-08T02:28:19.719Z,41.00
2024-03-08T02:33:22.887Z,39.85
2024-03-08T02:38:27.254Z,39.22
2024-03-08T02:43:30.192Z,38.03
2024-03-08T02:48:33.223Z,39.13
2024-03-08T02:53:38.910Z,42.10
2024-03-08T02:58:41.910Z,39.17
2024-03-08T03:03:44.863Z,38.85
2024-03-08T03:08:49.993Z,39.10
2024-03-08T03:13:52.957Z,38.22
2024-03-08T03:18:57.145Z,39.10
2024-03-08T03:24:01.460Z,38.38
2024-03-08T03:29:04.574Z,39.03
2024-03-08T03:34:09.802Z,38.45
2024-03-08T03:39:17.381Z,39.38
2024-03-08T03:44:20.879Z,37.83
2024-03-08T03:49:24.874Z,39.28
2024-03-08T03:54:31.769Z,38.22
2024-03-08T03:59:34.706Z,38.85
2024-03-08T04:04:37.609Z,38.20
2024-03-08T04:09:41.891Z,38.33
2024-03-08T04:14:45.465Z,38.20
2024-03-08T04:19:49.595Z,39.13
2024-03-08T04:24:53.865Z,38.38
2024-03-08T04:29:58.021Z,38.50
2024-03-08T04:35:02.357Z,38.70
2024-03-08T04:40:08.058Z,38.92
2024-03-08T04:45:12.131Z,40.22
2024-03-08T04:50:15.454Z,40.20
2024-03-08T04:55:22.136Z,38.83
2024-03-08T05:00:25.171Z,42.40
2024-03-08T05:05:29.672Z,39.92
2024-03-08T05:10:33.936Z,39.25
2024-03-08T05:15:37.584Z,38.60
2024-03-08T05:20:40.697Z,37.53
2024-03-08T05:25:44.966Z,40.53
2024-03-08T05:30:47.943Z,41.13
2024-03-08T05:35:50.875Z,39.85
2024-03-08T05:40:55.252Z,39.60
2024-03-08T05:45:58.143Z,38.67
2024-03-08T05:51:02.956Z,39.35
2024-03-08T05:56:08.017Z,37.63
2024-03-08T06:01:13.718Z,38.03
2024-03-08T06:06:19.057Z,37.95
2024-03-08T06:11:23.442Z,39.30
2024-03-08T06:16:29.635Z,39.15
2024-03-08T06:21:33.410Z,38.85
2024-03-08T06:26:40.243Z,38.43
2024-03-08T06:31:43.299Z,38.80
2024-03-08T06:36:46.207Z,38.65
2024-03-08T06:41:52.539Z,38.37
2024-03-08T06:46:57.393Z,37.67
2024-03-08T06:52:01.761Z,38.23
2024-03-08T06:57:06.634Z,38.38
2024-03-08T07:02:10.450Z,39.00
2024-03-08T07:07:13.386Z,39.05
2024-03-08T07:12:18.173Z,39.10
2024-03-08T07:17:21.235Z,38.53
2024-03-08T07:22:24.817Z,38.73
2024-03-08T07:27:30.165Z,40.63
2024-03-08T07:32:33.108Z,39.90
2024-03-08T07:37:36.057Z,40.72
2024-03-08T07:42:40.267Z,42.40
2024-03-08T07:47:43.247Z,42.90
2024-03-08T07:52:46.249Z,42.70
2024-03-08T07:57:50.724Z,44.45
2024-03-08T08:02:53.623Z,44.40
2024-03-08T08:07:57.306Z,44.22
2024-03-08T08:13:02.598Z,45.30
2024-03-08T08:18:08.124Z,45.55
2024-03-08T08:23:12.113Z,43.55
2024-03-08T08:28:18.481Z,43.42
2024-03-08T08:33:21.451Z,44.47
2024-03-08T08:38:25.877Z,43.60
2024-03-08T08:43:30.259Z,42.88
2024-03-08T08:48:33.238Z,42.95
2024-03-08T08:53:36.369Z,43.67
2024-03-08T08:58:40.899Z,43.72
2024-03-08T09:03:47.652Z,43.97
2024-03-08T09:08:50.573Z,42.15
2024-03-08T09:13:54.822Z,44.05
2024-03-08T09:18:58.271Z,43.80
2024-03-08T09:24:01.153Z,42.65
2024-03-08T09:29:06.437Z,43.42
2024-03-08T09:34:10.262Z,42.40
2024-03-08T09:39:17.730Z,41.88
2024-03-08T09:44:22.008Z,41.72
2024-03-08T09:49:25.008Z,42.45
2024-03-08T09:54:28.511Z,42.88
2024-03-08T09:59:45.266Z,42.60
2024-03-08T10:04:51.232Z,42.85
2024-03-08T10:09:54.812Z,42.45
2024-03-08T10:15:01.438Z,42.50
2024-03-08T10:20:15.911Z,42.35
2024-03-08T10:25:19.065Z,42.92
2024-03-08T10:30:24.140Z,43.63
2024-03-08T10:35:27.885Z,41.95
2024-03-08T10:40:31.300Z,43.55
2024-03-08T10:45:37.774Z,43.75
2024-03-08T10:50:41.334Z,43.45
2024-03-08T10:55:46.003Z,41.35
2024-03-08T11:00:51.722Z,43.05
2024-03-08T11:05:54.678Z,44.45
2024-03-08T11:10:57.925Z,42.72
2024-03-08T11:16:02.764Z,43.28
2024-03-08T11:21:07.793Z,41.67
2024-03-08T11:26:20.288Z,42.53
2024-03-08T11:31:29.783Z,39.92
2024-03-08T11:36:37.860Z,41.13
2024-03-08T11:41:42.602Z,42.83
2024-03-08T11:46:48.929Z,41.88
2024-03-08T11:51:54.978Z,41.28
2024-03-08T11:57:02.069Z,42.00
2024-03-08T12:02:11.478Z,42.40
2024-03-08T12:07:15.379Z,42.08
2024-03-08T12:12:18.379Z,41.90
2024-03-08T12:17:23.161Z,41.10
2024-03-08T12:22:27.569Z,40.50
2024-03-08T12:27:30.584Z,42.10
2024-03-08T12:32:34.887Z,40.55
2024-03-08T12:37:38.771Z,40.30
2024-03-08T12:42:41.929Z,42.05
2024-03-08T12:47:47.195Z,40.92
2024-03-08T12:52:53.884Z,40.80
2024-03-08T12:57:58.211Z,40.00
2024-03-08T13:03:03.707Z,39.85
2024-03-08T13:08:13.308Z,40.15
2024-03-08T13:13:19.184Z,41.10
2024-03-08T13:18:24.979Z,40.38
2024-03-08T13:23:28.550Z,41.65
2024-03-08T13:28:32.311Z,40.90
2024-03-08T13:33:38.305Z,40.75
2024-03-08T13:38:44.233Z,40.38
2024-03-08T13:43:51.199Z,41.30
2024-03-08T13:48:57.531Z,41.63
2024-03-08T13:54:08.020Z,40.03
2024-03-08T13:59:11.747Z,41.70
2024-03-08T14:04:18.363Z,40.55
2024-03-08T14:09:22.307Z,39.63
2024-03-08T14:14:25.609Z,40.78
2024-03-08T14:19:32.202Z,38.55
2024-03-08T14:24:40.862Z,38.97
2024-03-08T14:29:44.885Z,40.53
2024-03-08T14:34:57.676Z,39.42
2024-03-08T14:40:06.463Z,39.35
2024-03-08T14:45:12.550Z,39.17
2024-03-08T14:50:21.755Z,40.38
2024-03-08T14:55:31.796Z,39.55
2024-03-08T15:00:39.514Z,39.35
2024-03-08T15:06:01.092Z,39.30
2024-03-08T15:11:48.666Z,39.55
2024-03-08T15:16:52.409Z,38.40
2024-03-08T15:21:57.894Z,38.20
2024-03-08T15:27:03.108Z,38.03
2024-03-08T15:32:08.458Z,38.20
2024-03-08T15:37:17.726Z,38.47
2024-03-08T15:42:21.054Z,38.20
2024-03-08T15:47:27.092Z,38.35
2024-03-08T15:52:31.731Z,41.92
2024-03-08T15:57:36.478Z,40.10
2024-03-08T16:02:42.064Z,38.63
2024-03-08T16:07:46.937Z,41.33
2024-03-08T16:12:50.125Z,38.25
2024-03-08T16:17:53.142Z,38.47
2024-03-08T16:22:57.825Z,39.40
2024-03-08T16:28:01.014Z,38.13
2024-03-08T16:33:04.233Z,38.35
2024-03-08T16:38:09.019Z,37.70
2024-03-08T16:43:12.978Z,38.53
2024-03-08T16:48:17.411Z,38.33
2024-03-08T16:53:21.954Z,38.20
2024-03-08T16:58:25.071Z,39.42
2024-03-08T17:03:28.580Z,38.67
2024-03-08T17:08:33.472Z,40.20
2024-03-08T17:13:37.306Z,39.15
2024-03-08T17:18:40.805Z,40.42
2024-03-08T17:23:45.572Z,40.08
2024-03-08T17:28:49.001Z,39.38
2024-03-08T17:33:52.338Z,38.10
2024-03-08T17:38:58.736Z,38.83
2024-03-08T17:44:01.706Z,38.17
2024-03-08T17:49:04.692Z,38.60
2024-03-08T17:54:11.982Z,37.50
2024-03-08T17:59:14.911Z,38.30
2024-03-08T18:04:17.837Z,37.58
2024-03-08T18:09:24.392Z,38.63
2024-03-08T18:14:27.516Z,38.30
2024-03-08T18:19:32.158Z,38.28
2024-03-08T18:24:36.433Z,38.30
2024-03-08T18:29:41.073Z,39.53
2024-03-08T18:34:45.581Z,42.58
2024-03-08T18:39:51.100Z,40.45
2024-03-08T18:44:54.077Z,38.88
2024-03-08T18:49:57.178Z,38.60
2024-03-08T18:55:01.483Z,38.88
2024-03-08T19:00:13.532Z,39.97
2024-03-08T19:05:17.833Z,39.20
2024-03-08T19:10:24.157Z,39.15
2024-03-08T19:15:28.083Z,40.40
2024-03-08T19:20:34.736Z,40.92
2024-03-08T19:25:42.425Z,41.22
2024-03-08T19:30:45.865Z,40.05
2024-03-08T19:35:49.250Z,40.00
2024-03-08T19:40:54.956Z,40.22
2024-03-08T19:45:59.290Z,40.33
2024-03-08T19:51:06.260Z,41.47
2024-03-08T19:56:10.710Z,40.22
2024-03-08T20:01:16.215Z,41.78
2024-03-08T20:06:19.797Z,40.58
2024-03-08T20:11:25.303Z,40.13
2024-03-08T20:16:28.891Z,39.50
2024-03-08T20:21:31.822Z,40.58
2024-03-08T20:26:37.456Z,39.53
2024-03-08T20:31:40.449Z,39.63
2024-03-08T20:36:44.428Z,41.33
2024-03-08T20:41:50.055Z,39.65
2024-03-08T20:46:53.166Z,42.28
2024-03-08T20:51:56.930Z,41.47
2024-03-08T20:57:02.419Z,39.90
2024-03-08T21:02:07.295Z,39.55
2024-03-08T21:07:10.678Z,40.42
2024-03-08T21:12:17.635Z,41.55
2024-03-08T21:17:21.286Z,41.83
2024-03-08T21:22:24.232Z,41.80
2024-03-08T21:27:29.190Z,40.95
2024-03-08T21:32:32.144Z,40.03
2024-03-08T21:37:35.287Z,42.60
2024-03-08T21:42:39.662Z,42.50
2024-03-08T21:47:42.551Z,42.95
2024-03-08T21:52:45.898Z,41.83
2024-03-08T21:57:51.268Z,41.33
2024-03-08T22:02:54.140Z,41.40
2024-03-08T22:07:57.085Z,41.70
2024-03-08T22:13:01.320Z,40.88
2024-03-08T22:18:04.354Z,41.90
2024-03-08T22:23:07.554Z,43.00
2024-03-08T22:28:14.221Z,41.58
2024-03-08T22:33:17.099Z,41.60
2024-03-08T22:38:21.042Z,41.05
2024-03-08T22:43:25.316Z,41.38
2024-03-08T22:48:28.257Z,41.67
2024-03-08T22:53:31.141Z,46.35
2024-03-08T22:58:36.484Z,42.58
2024-03-08T23:03:39.658Z,42.03
2024-03-08T23:08:46.485Z,41.88
2024-03-08T23:13:51.921Z,41.47
2024-03-08T23:18:56.442Z,43.42
2024-03-08T23:23:59.369Z,44.95
2024-03-08T23:29:04.421Z,42.40
2024-03-08T23:34:08.435Z,42.42
2024-03-08T23:39:12.925Z,41.85
2024-03-08T23:44:18.755Z,41.78
2024-03-08T23:49:22.255Z,40.47
2024-03-08T23:54:28.165Z,40.58
2024-03-08T23:59:32.662Z,39.78
